Time;durP1;ratioP1;P1;durP2;ratioP2;P2;SDS_P1;SDS_P2;PMS_P1;PMS_P2;Temp;Humidity;BMP_temperature;BMP_pressure;BME280_temperature;BME280_humidity;BME280_pressure;Samples;Min_cycle;Max_cycle;Signal;HPM_P1;HPM_P2
2023/04/12 00:01:49;;;;;;;3.22;1.15;;;8.90;99.90;;;;;;5116522;28;20015;-60
2023/04/12 00:04:15;;;;;;;2.78;1.10;;;8.90;99.90;;;;;;5116569;28;20031;-59
2023/04/12 00:06:41;;;;;;;2.28;0.90;;;8.90;99.90;;;;;;5117555;28;20028;-59
2023/04/12 00:09:07;;;;;;;3.03;0.95;;;8.90;99.90;;;;;;5117253;28;20066;-59
2023/04/12 00:11:34;;;;;;;2.17;0.85;;;8.90;99.90;;;;;;5117300;28;20066;-59
2023/04/12 00:14:00;;;;;;;2.88;0.90;;;8.90;99.90;;;;;;5117392;28;20050;-60
2023/04/12 00:16:26;;;;;;;2.90;1.02;;;8.90;99.90;;;;;;5116539;28;20028;-59
2023/04/12 00:18:52;;;;;;;3.17;1.20;;;8.90;99.90;;;;;;5116564;28;20172;-59
2023/04/12 00:21:18;;;;;;;3.63;0.90;;;9.00;99.90;;;;;;5117188;28;20024;-59
2023/04/12 00:23:48;;;;;;;3.80;1.00;;;9.00;99.90;;;;;;5117185;28;20092;-60
2023/04/12 00:26:14;;;;;;;3.22;0.95;;;9.00;99.90;;;;;;5116320;28;20296;-60
2023/04/12 00:28:42;;;;;;;3.40;1.30;;;8.90;99.90;;;;;;5116221;28;20031;-63
2023/04/12 00:31:08;;;;;;;3.53;1.10;;;8.90;99.90;;;;;;5116643;28;20055;-61
2023/04/12 00:33:34;;;;;;;3.25;1.02;;;8.90;99.90;;;;;;5116379;28;20035;-59
2023/04/12 00:36:00;;;;;;;3.03;1.08;;;8.80;99.90;;;;;;5117618;28;20411;-60
2023/04/12 00:38:26;;;;;;;2.45;1.00;;;8.90;99.90;;;;;;5117017;28;20032;-59
2023/04/12 00:40:52;;;;;;;4.72;1.17;;;8.80;99.90;;;;;;5099672;28;20106;-59
2023/04/12 00:43:17;;;;;;;2.60;1.13;;;8.80;99.90;;;;;;5116812;28;20071;-59
2023/04/12 00:45:45;;;;;;;3.95;1.27;;;8.80;99.90;;;;;;5117398;28;20085;-60
2023/04/12 00:48:11;;;;;;;3.45;1.08;;;8.80;99.90;;;;;;5116257;28;20027;-58
2023/04/12 00:50:43;;;;;;;1.70;0.90;;;8.80;99.90;;;;;;5116274;28;20034;-59
2023/04/12 00:53:12;;;;;;;4.40;1.10;;;8.80;99.90;;;;;;5116173;28;20094;-60
2023/04/12 00:55:43;;;;;;;2.60;0.95;;;8.80;99.90;;;;;;5116088;28;20518;-59
2023/04/12 00:58:09;;;;;;;3.55;0.98;;;8.80;99.90;;;;;;5117175;28;20107;-60
2023/04/12 01:00:35;;;;;;;3.97;1.00;;;8.80;99.90;;;;;;5099043;28;20127;-60
2023/04/12 01:03:04;;;;;;;2.63;0.68;;;8.70;99.90;;;;;;5116883;28;20359;-60
2023/04/12 01:05:31;;;;;;;4.55;1.13;;;8.60;99.90;;;;;;5117343;28;20418;-60
2023/04/12 01:08:22;;;;;;;2.40;0.93;;;8.60;99.90;;;;;;5115960;28;20050;-60
2023/04/12 01:11:05;;;;;;;3.28;1.00;;;8.70;99.90;;;;;;5120957;28;20032;-61
2023/04/12 01:13:44;;;;;;;3.05;0.95;;;8.70;99.90;;;;;;5119595;28;20040;-59
2023/04/12 01:16:20;;;;;;;3.70;0.90;;;8.70;99.90;;;;;;5119642;28;20092;-59
2023/04/12 01:18:50;;;;;;;2.75;0.82;;;8.70;99.90;;;;;;5102818;28;20034;-58
2023/04/12 01:21:27;;;;;;;4.35;1.05;;;8.70;99.90;;;;;;5120022;28;20304;-59
2023/04/12 01:24:12;;;;;;;3.15;1.02;;;8.70;99.90;;;;;;5120294;28;20411;-60
2023/04/12 01:26:44;;;;;;;4.95;1.10;;;8.70;99.90;;;;;;5119393;28;20032;-58
2023/04/12 01:29:21;;;;;;;3.35;1.00;;;8.70;99.90;;;;;;5119370;28;20039;-58
2023/04/12 01:32:09;;;;;;;3.38;1.25;;;8.70;99.90;;;;;;5120115;28;20036;-58
2023/04/12 01:34:37;;;;;;;3.55;1.02;;;8.70;99.90;;;;;;5119228;28;20396;-57
2023/04/12 01:37:03;;;;;;;1.83;1.02;;;8.70;99.90;;;;;;5119173;28;20031;-59
2023/04/12 01:39:31;;;;;;;2.78;1.23;;;8.60;99.90;;;;;;5120404;28;20032;-59
2023/04/12 01:41:57;;;;;;;1.92;0.85;;;8.60;99.90;;;;;;5101933;28;20048;-58
2023/04/12 01:44:22;;;;;;;2.83;1.10;;;8.60;99.90;;;;;;5119859;28;20118;-59
2023/04/12 01:46:49;;;;;;;2.92;0.90;;;8.70;99.90;;;;;;5119354;28;20040;-59
2023/04/12 01:49:17;;;;;;;3.67;1.10;;;8.70;99.90;;;;;;5119167;28;20277;-59
2023/04/12 01:51:57;;;;;;;3.10;1.00;;;8.70;99.90;;;;;;5119005;28;20043;-58
2023/04/12 01:54:33;;;;;;;3.95;1.00;;;8.80;99.90;;;;;;5118776;28;20039;-59
2023/04/12 01:57:01;;;;;;;2.33;1.00;;;8.70;99.90;;;;;;5119775;28;20024;-59
2023/04/12 01:59:47;;;;;;;2.45;1.00;;;8.80;99.90;;;;;;5118747;28;20031;-58
2023/04/12 02:02:13;;;;;;;4.47;1.20;;;8.70;99.90;;;;;;5101855;28;20032;-60
2023/04/12 02:04:41;;;;;;;3.38;1.20;;;8.80;99.90;;;;;;5118807;28;20370;-58
2023/04/12 02:07:08;;;;;;;3.85;1.20;;;8.80;99.90;;;;;;5118444;28;20040;-59
2023/04/12 02:09:38;;;;;;;2.78;1.20;;;8.80;99.90;;;;;;5118577;28;20032;-59
2023/04/12 02:12:05;;;;;;;1.83;0.90;;;8.70;99.90;;;;;;5119218;28;20034;-59
2023/04/12 02:14:31;;;;;;;2.45;1.10;;;8.80;99.90;;;;;;5119204;28;20043;-58
2023/04/12 02:16:57;;;;;;;3.70;1.10;;;8.80;99.90;;;;;;5119191;28;20085;-58
2023/04/12 02:19:23;;;;;;;4.70;1.15;;;8.80;99.90;;;;;;5119058;28;20481;-58
2023/04/12 02:21:51;;;;;;;2.70;1.15;;;8.80;99.90;;;;;;5117521;28;20309;-59
2023/04/12 02:24:16;;;;;;;3.13;1.10;;;8.70;99.90;;;;;;5118173;28;20031;-59
2023/04/12 02:26:43;;;;;;;2.65;1.23;;;8.80;99.90;;;;;;5118446;28;20099;-58
2023/04/12 02:29:09;;;;;;;3.33;1.20;;;8.80;99.90;;;;;;5118202;28;20118;-61
2023/04/12 02:31:37;;;;;;;1.75;1.10;;;8.80;99.90;;;;;;5118046;28;20432;-60
2023/04/12 02:34:05;;;;;;;5.05;1.85;;;8.80;99.90;;;;;;5118820;28;20024;-60
2023/04/12 02:36:33;;;;;;;3.83;1.40;;;8.80;99.90;;;;;;5118809;28;20069;-59
2023/04/12 02:38:59;;;;;;;5.93;1.60;;;8.80;99.90;;;;;;5118752;28;20036;-60
2023/04/12 02:41:26;;;;;;;4.57;1.70;;;8.80;99.90;;;;;;5117692;28;20023;-59
2023/04/12 02:43:52;;;;;;;3.75;1.30;;;8.70;99.90;;;;;;5117801;28;20431;-59
2023/04/12 02:46:21;;;;;;;3.13;1.30;;;8.70;99.90;;;;;;5117784;28;20027;-59
2023/04/12 02:48:51;;;;;;;3.42;1.23;;;8.70;99.90;;;;;;5117816;28;20046;-59
2023/04/12 02:51:19;;;;;;;3.00;1.30;;;8.70;99.90;;;;;;5117596;28;20031;-59
2023/04/12 02:53:48;;;;;;;4.18;1.50;;;8.70;99.90;;;;;;5117496;28;20035;-60
2023/04/12 02:56:21;;;;;;;2.70;1.10;;;8.70;99.90;;;;;;5117768;28;20081;-59
2023/04/12 02:58:53;;;;;;;2.35;1.00;;;8.80;99.90;;;;;;5117613;28;20032;-59
2023/04/12 03:01:38;;;;;;;2.47;1.00;;;8.80;99.90;;;;;;5117730;28;20050;-61
2023/04/12 03:04:29;;;;;;;8.02;1.35;;;8.70;99.90;;;;;;5117500;28;20118;-59
2023/04/12 03:06:56;;;;;;;4.18;1.38;;;8.70;99.90;;;;;;5100932;28;20031;-58
2023/04/12 03:09:41;;;;;;;3.20;1.30;;;8.70;99.90;;;;;;5117405;28;20050;-59
2023/04/12 03:12:07;;;;;;;2.22;1.13;;;8.60;99.90;;;;;;5117299;28;20063;-60
2023/04/12 03:14:39;;;;;;;2.23;1.27;;;8.70;99.90;;;;;;5117553;28;20047;-59
2023/04/12 03:17:06;;;;;;;4.13;1.25;;;8.80;99.90;;;;;;5100537;28;20285;-58
2023/04/12 03:19:35;;;;;;;2.50;1.20;;;8.80;99.90;;;;;;5117192;28;20123;-59
2023/04/12 03:22:03;;;;;;;3.63;1.20;;;8.80;99.90;;;;;;5100273;28;20075;-59
2023/04/12 03:24:33;;;;;;;4.38;1.10;;;8.80;99.90;;;;;;5117786;28;20050;-59
2023/04/12 03:27:01;;;;;;;2.83;1.00;;;8.80;99.90;;;;;;5117124;28;20363;-59
2023/04/12 03:29:28;;;;;;;2.70;1.02;;;8.80;99.90;;;;;;5100062;28;20042;-58
2023/04/12 03:31:56;;;;;;;2.90;1.13;;;8.80;99.90;;;;;;5117686;28;20031;-59
2023/04/12 03:34:23;;;;;;;5.13;1.17;;;8.80;99.90;;;;;;5100537;28;20088;-59
2023/04/12 03:36:55;;;;;;;3.53;1.50;;;8.90;99.90;;;;;;5117689;28;20035;-59
2023/04/12 03:39:35;;;;;;;2.67;1.20;;;8.90;99.90;;;;;;5102120;28;20116;-59
2023/04/12 03:42:01;;;;;;;3.53;1.15;;;9.00;99.90;;;;;;5116991;28;20070;-60
2023/04/12 03:44:27;;;;;;;2.78;1.23;;;8.90;99.90;;;;;;5116850;28;20059;-61
2023/04/12 03:46:56;;;;;;;3.35;1.10;;;8.90;99.90;;;;;;5116682;28;20047;-58
2023/04/12 03:49:23;;;;;;;2.40;1.13;;;8.90;99.90;;;;;;5116694;28;20036;-59
2023/04/12 03:51:49;;;;;;;2.35;1.10;;;8.90;99.90;;;;;;5099780;28;20039;-58
2023/04/12 03:54:15;;;;;;;1.83;1.00;;;8.90;99.90;;;;;;5116568;28;20042;-59
2023/04/12 03:57:02;;;;;;;2.78;1.10;;;9.00;99.90;;;;;;5116832;28;20308;-59
2023/04/12 03:59:42;;;;;;;3.70;0.88;;;9.00;99.90;;;;;;5116779;28;20059;-59
2023/04/12 04:02:09;;;;;;;1.75;1.08;;;9.00;99.90;;;;;;5099597;28;20027;-59
2023/04/12 04:04:40;;;;;;;5.25;1.33;;;9.00;99.90;;;;;;5101211;28;20392;-58
2023/04/12 04:07:10;;;;;;;1.52;1.10;;;9.00;99.90;;;;;;5100021;28;20412;-59
2023/04/12 04:09:42;;;;;;;;;;;9.00;99.90;;;;;;5116931;28;20122;-60
2023/04/12 04:12:09;;;;;;;3.05;1.33;;;9.10;99.90;;;;;;5117541;28;20284;-58
2023/04/12 04:14:38;;;;;;;1.25;1.00;;;9.10;99.90;;;;;;5083583;28;20042;-58
2023/04/12 04:17:07;;;;;;;4.85;1.27;;;9.10;99.90;;;;;;5116473;28;20118;-58
2023/04/12 04:19:33;;;;;;;2.60;0.95;;;9.10;99.90;;;;;;5116643;28;20038;-59
2023/04/12 04:22:00;;;;;;;2.70;1.10;;;9.10;99.90;;;;;;5099622;28;20032;-59
2023/04/12 04:24:27;;;;;;;1.55;0.90;;;9.10;99.90;;;;;;5099513;28;20074;-60
2023/04/12 04:26:57;;;;;;;3.17;1.10;;;9.10;99.90;;;;;;5116301;28;20032;-59
2023/04/12 04:29:27;;;;;;;2.30;1.10;;;9.20;99.90;;;;;;5116333;28;20031;-59
2023/04/12 04:31:53;;;;;;;2.20;1.27;;;9.10;99.90;;;;;;5116221;28;20031;-59
2023/04/12 04:34:21;;;;;;;2.53;1.02;;;9.10;99.90;;;;;;5116201;28;20038;-59
2023/04/12 04:36:48;;;;;;;2.60;1.10;;;9.10;99.90;;;;;;5082861;28;20324;-59
2023/04/12 04:39:21;;;;;;;3.40;1.40;;;9.10;99.90;;;;;;5100328;28;20020;-58
2023/04/12 04:41:53;;;;;;;1.75;1.02;;;9.10;99.90;;;;;;5099611;28;20070;-58
2023/04/12 04:44:30;;;;;;;1.98;1.10;;;9.10;99.90;;;;;;5118412;28;20032;-58
2023/04/12 04:46:59;;;;;;;1.88;1.10;;;9.10;99.90;;;;;;5120183;28;20120;-59
2023/04/12 04:49:25;;;;;;;2.75;1.38;;;9.10;99.90;;;;;;5120671;28;20039;-59
2023/04/12 04:51:53;;;;;;;1.60;1.10;;;9.10;99.90;;;;;;5120071;28;20316;-60
2023/04/12 04:54:21;;;;;;;4.85;1.50;;;9.10;99.90;;;;;;5119956;28;20047;-59
2023/04/12 04:56:47;;;;;;;3.47;1.50;;;9.20;99.90;;;;;;5120794;28;20410;-58
2023/04/12 04:59:16;;;;;;;1.92;1.40;;;9.10;99.90;;;;;;5120728;28;20051;-58
2023/04/12 05:01:42;;;;;;;4.55;1.35;;;9.10;99.90;;;;;;5120840;28;20038;-58
2023/04/12 05:04:08;;;;;;;1.88;1.40;;;9.10;99.90;;;;;;5119772;28;20312;-60
2023/04/12 05:06:34;;;;;;;2.20;1.40;;;9.20;99.90;;;;;;5120828;28;20028;-59
2023/04/12 05:09:01;;;;;;;3.63;1.40;;;9.30;99.90;;;;;;5119713;28;20066;-59
2023/04/12 05:11:28;;;;;;;2.00;1.40;;;9.30;99.90;;;;;;5119528;28;20392;-58
2023/04/12 05:13:54;;;;;;;2.00;1.50;;;9.30;99.90;;;;;;5120414;28;20131;-59
2023/04/12 05:16:20;;;;;;;2.42;1.55;;;9.20;99.90;;;;;;5119408;28;20039;-59
2023/04/12 05:18:46;;;;;;;2.53;1.70;;;9.20;99.90;;;;;;5120403;28;20036;-61
2023/04/12 05:21:11;;;;;;;5.25;2.05;;;9.20;99.90;;;;;;5119422;28;20078;-61
2023/04/12 05:23:44;;;;;;;3.40;2.15;;;9.30;99.90;;;;;;5120214;28;20032;-61
2023/04/12 05:26:11;;;;;;;3.72;2.20;;;9.50;99.90;;;;;;5119425;28;20416;-61
2023/04/12 05:28:39;;;;;;;4.78;2.38;;;9.60;99.90;;;;;;5102463;28;20035;-61
2023/04/12 05:31:05;;;;;;;3.67;2.08;;;9.60;99.90;;;;;;5102382;28;20085;-61
2023/04/12 05:33:36;;;;;;;3.42;1.80;;;9.60;99.90;;;;;;5119059;28;20036;-61
2023/04/12 05:36:02;;;;;;;4.20;2.50;;;9.70;99.90;;;;;;5118954;28;20061;-61
2023/04/12 05:38:30;;;;;;;3.47;1.90;;;9.70;99.90;;;;;;5102293;28;20059;-61
2023/04/12 05:41:03;;;;;;;4.07;2.20;;;9.80;99.90;;;;;;5119116;28;20031;-61
2023/04/12 05:43:31;;;;;;;5.88;2.63;;;9.80;99.90;;;;;;5119038;28;20055;-61
2023/04/12 05:45:58;;;;;;;6.35;2.30;;;9.80;99.90;;;;;;5119071;28;20024;-61
2023/04/12 05:48:24;;;;;;;7.10;2.97;;;9.80;99.90;;;;;;5118962;28;20290;-60
2023/04/12 05:50:53;;;;;;;7.82;2.67;;;9.80;99.90;;;;;;5119336;28;20023;-61
2023/04/12 05:53:20;;;;;;;7.45;2.80;;;9.80;99.90;;;;;;5101935;28;20024;-62
2023/04/12 05:55:46;;;;;;;5.75;2.97;;;9.90;99.90;;;;;;5118417;28;20035;-60
2023/04/12 05:58:13;;;;;;;6.10;2.42;;;9.90;99.90;;;;;;5118739;28;20039;-61
2023/04/12 06:00:40;;;;;;;7.60;2.85;;;9.90;99.90;;;;;;5118712;28;20035;-60
2023/04/12 06:03:09;;;;;;;6.43;2.60;;;10.00;99.90;;;;;;5119379;28;20401;-61
2023/04/12 06:05:35;;;;;;;5.47;2.45;;;10.10;99.90;;;;;;5119393;28;20124;-61
2023/04/12 06:08:01;;;;;;;6.07;2.50;;;10.10;99.90;;;;;;5118561;28;20093;-61
2023/04/12 06:10:27;;;;;;;7.75;2.40;;;10.10;99.90;;;;;;5118506;28;20052;-62
2023/04/12 06:12:53;;;;;;;11.73;3.20;;;10.10;99.90;;;;;;5119167;28;20124;-60
2023/04/12 06:15:19;;;;;;;9.48;2.60;;;10.00;99.90;;;;;;5118397;28;20066;-61
2023/04/12 06:17:50;;;;;;;7.75;2.35;;;9.90;99.90;;;;;;5118993;28;20297;-63
2023/04/12 06:20:17;;;;;;;9.90;3.30;;;10.20;99.90;;;;;;5119276;28;20038;-62
2023/04/12 06:22:45;;;;;;;9.10;2.83;;;10.50;99.90;;;;;;5084380;28;20419;-62
2023/04/12 06:25:15;;;;;;;12.85;3.25;;;10.30;99.90;;;;;;5118333;28;20092;-61
2023/04/12 06:27:43;;;;;;;9.88;3.00;;;10.30;99.90;;;;;;5101625;28;20366;-58
2023/04/12 06:30:10;;;;;;;11.52;3.88;;;10.30;99.90;;;;;;5118376;28;20035;-62
2023/04/12 06:32:37;;;;;;;9.10;2.60;;;10.30;99.90;;;;;;5118096;28;20061;-63
2023/04/12 06:35:04;;;;;;;6.85;2.72;;;10.20;99.90;;;;;;5118015;28;20104;-62
2023/04/12 06:37:31;;;;;;;11.80;3.40;;;10.10;99.90;;;;;;5118007;28;20407;-62
2023/04/12 06:39:57;;;;;;;11.90;2.72;;;10.10;99.90;;;;;;5118651;28;20107;-60
2023/04/12 06:42:23;;;;;;;8.38;2.90;;;9.90;99.90;;;;;;5118349;28;20047;-59
2023/04/12 06:44:49;;;;;;;6.93;2.58;;;10.00;99.90;;;;;;5117863;28;20419;-60
2023/04/12 06:47:15;;;;;;;8.00;3.08;;;10.20;99.90;;;;;;5119074;28;20023;-57
2023/04/12 06:49:40;;;;;;;8.50;3.20;;;10.40;99.90;;;;;;5118506;28;20058;-59
2023/04/12 06:52:06;;;;;;;6.32;3.20;;;10.30;99.90;;;;;;5117589;28;20035;-59
2023/04/12 06:54:36;;;;;;;9.30;3.00;;;10.30;99.90;;;;;;5118346;28;20393;-60
2023/04/12 06:57:02;;;;;;;8.93;2.90;;;10.30;99.90;;;;;;5118415;27;20137;-59
2023/04/12 06:59:28;;;;;;;8.88;3.35;;;10.30;99.90;;;;;;5118308;28;20460;-59
2023/04/12 07:01:54;;;;;;;10.85;3.47;;;10.20;99.90;;;;;;5118567;28;20089;-60
2023/04/12 07:04:19;;;;;;;7.50;3.10;;;10.20;99.90;;;;;;5117429;28;20035;-58
2023/04/12 07:06:45;;;;;;;9.38;3.10;;;10.10;99.90;;;;;;5117826;28;20397;-59
2023/04/12 07:09:11;;;;;;;8.63;2.78;;;10.10;99.90;;;;;;5118052;28;20108;-58
2023/04/12 07:11:37;;;;;;;6.85;2.92;;;9.90;99.90;;;;;;5118103;28;20035;-59
2023/04/12 07:14:03;;;;;;;6.38;2.80;;;9.90;99.90;;;;;;5117291;28;20350;-59
2023/04/12 07:16:32;;;;;;;7.63;3.00;;;10.00;99.90;;;;;;5118589;28;20381;-59
2023/04/12 07:18:59;;;;;;;9.85;3.03;;;9.90;99.90;;;;;;5118024;28;20024;-59
2023/04/12 07:21:26;;;;;;;12.00;2.85;;;10.10;99.90;;;;;;5117903;28;20039;-59
2023/04/12 07:23:52;;;;;;;10.55;2.80;;;10.30;99.90;;;;;;5117201;28;20031;-59
2023/04/12 07:26:18;;;;;;;15.10;3.20;;;10.40;99.90;;;;;;5118674;28;20040;-59
2023/04/12 07:28:44;;;;;;;10.52;3.05;;;10.40;99.90;;;;;;5117761;28;20335;-58
2023/04/12 07:31:10;;;;;;;10.50;2.78;;;10.40;99.90;;;;;;5117811;28;20382;-59
2023/04/12 07:33:36;;;;;;;10.90;2.80;;;10.30;99.90;;;;;;5116860;28;20031;-59
2023/04/12 07:36:03;;;;;;;10.18;3.00;;;10.30;99.90;;;;;;5117761;28;20028;-60
2023/04/12 07:38:29;;;;;;;14.63;2.85;;;10.20;99.90;;;;;;5117614;28;20027;-59
2023/04/12 07:40:55;;;;;;;7.18;2.50;;;10.20;99.90;;;;;;5118242;28;20035;-59
2023/04/12 07:43:22;;;;;;;10.07;2.35;;;10.20;99.90;;;;;;5117523;28;20063;-58
2023/04/12 07:45:48;;;;;;;10.77;2.45;;;10.20;99.90;;;;;;5117640;28;20035;-58
2023/04/12 07:48:14;;;;;;;8.35;2.60;;;10.30;99.90;;;;;;5117612;28;20024;-59
2023/04/12 07:50:40;;;;;;;6.72;2.30;;;10.40;99.90;;;;;;5117531;28;20045;-60
2023/04/12 07:53:26;;;;;;;8.07;2.15;;;10.70;99.90;;;;;;5099663;28;20375;-59
2023/04/12 07:55:53;;;;;;;8.90;1.88;;;11.00;99.90;;;;;;5117536;28;20054;-58
2023/04/12 07:58:21;;;;;;;9.25;1.88;;;10.80;99.90;;;;;;5117285;28;20408;-60
2023/04/12 08:00:47;;;;;;;6.90;1.67;;;10.90;99.90;;;;;;5117329;28;20032;-58
2023/04/12 08:03:14;;;;;;;11.05;1.85;;;10.90;99.90;;;;;;5117153;28;20058;-58
2023/04/12 08:05:41;;;;;;;12.35;2.22;;;10.80;99.90;;;;;;5117245;28;20046;-58
2023/04/12 08:08:08;;;;;;;11.90;1.90;;;10.70;99.90;;;;;;5116920;28;20107;-58
2023/04/12 08:10:35;;;;;;;12.07;2.47;;;10.80;99.90;;;;;;5117113;28;20039;-57
2023/04/12 08:13:02;;;;;;;13.10;2.45;;;10.80;99.90;;;;;;5117430;28;20104;-58
2023/04/12 08:15:28;;;;;;;11.25;2.67;;;10.80;99.90;;;;;;5116364;28;20300;-59
2023/04/12 08:17:54;;;;;;;11.13;1.92;;;10.70;99.90;;;;;;5117308;28;20035;-58
2023/04/12 08:20:19;;;;;;;10.80;2.30;;;10.70;99.90;;;;;;5120807;28;20032;-58
2023/04/12 08:22:46;;;;;;;9.98;2.10;;;10.70;99.90;;;;;;5121285;28;20026;-58
2023/04/12 08:25:12;;;;;;;9.32;2.15;;;10.70;99.90;;;;;;5121296;28;20100;-58
2023/04/12 08:27:41;;;;;;;12.98;2.25;;;10.50;99.90;;;;;;5121173;28;20042;-61
2023/04/12 08:30:07;;;;;;;11.32;2.28;;;10.60;99.90;;;;;;5121173;28;20071;-60
2023/04/12 08:32:34;;;;;;;11.18;2.42;;;10.80;99.90;;;;;;5121671;28;20043;-59
2023/04/12 08:35:01;;;;;;;8.77;1.90;;;10.60;99.90;;;;;;5121106;28;20111;-59
2023/04/12 08:37:27;;;;;;;14.07;2.75;;;10.50;99.90;;;;;;5103362;28;20080;-60
2023/04/12 08:39:52;;;;;;;16.25;2.95;;;10.50;99.90;;;;;;5120340;28;20031;-61
2023/04/12 08:42:18;;;;;;;12.70;2.30;;;10.70;99.90;;;;;;5120788;28;20427;-60
2023/04/12 08:44:45;;;;;;;15.50;2.25;;;10.70;99.90;;;;;;5120182;28;20032;-62
2023/04/12 08:47:10;;;;;;;11.23;2.35;;;10.80;99.90;;;;;;5120168;28;20027;-62
2023/04/12 08:49:37;;;;;;;11.07;2.28;;;11.00;99.90;;;;;;5103260;28;20027;-61
2023/04/12 08:52:07;;;;;;;13.60;2.17;;;11.30;99.90;;;;;;5120882;28;20282;-62
2023/04/12 08:54:34;;;;;;;13.82;1.83;;;11.50;99.90;;;;;;5120052;28;20074;-62
2023/04/12 08:57:03;;;;;;;12.85;2.25;;;11.50;99.90;;;;;;5120837;28;20093;-60
2023/04/12 08:59:31;;;;;;;9.68;2.30;;;11.40;99.90;;;;;;5103477;28;20050;-62
2023/04/12 09:01:57;;;;;;;13.50;2.60;;;11.50;99.90;;;;;;5120651;28;20110;-62
2023/04/12 09:04:28;;;;;;;14.88;2.30;;;12.00;99.90;;;;;;5119901;28;20460;-62
2023/04/12 09:06:55;;;;;;;12.73;2.28;;;12.30;99.90;;;;;;5120926;28;20024;-61
2023/04/12 09:09:46;;;;;;;10.40;2.47;;;12.30;96.10;;;;;;5120509;28;20035;-61
2023/04/12 09:12:13;;;;;;;10.85;2.25;;;11.70;96.20;;;;;;5121086;28;20118;-60
2023/04/12 09:14:42;;;;;;;10.65;2.20;;;11.50;99.90;;;;;;5119662;28;20457;-62
2023/04/12 09:17:27;;;;;;;10.50;1.88;;;11.80;99.90;;;;;;5120874;28;20114;-66
2023/04/12 09:19:56;;;;;;;11.88;1.88;;;12.10;94.10;;;;;;5119486;28;20028;-65
2023/04/12 09:22:35;;;;;;;11.43;1.90;;;12.00;97.50;;;;;;5120359;28;20023;-67
2023/04/12 09:25:02;;;;;;;14.20;2.20;;;11.60;96.80;;;;;;5120303;28;20122;-66
2023/04/12 09:27:28;;;;;;;7.88;1.85;;;11.70;97.50;;;;;;5102421;28;20035;-66
2023/04/12 09:30:10;;;;;;;9.02;1.92;;;12.00;94.50;;;;;;5119903;28;20125;-66
2023/04/12 09:32:36;;;;;;;9.30;2.40;;;11.90;95.50;;;;;;5119346;28;20390;-66
2023/04/12 09:35:04;;;;;;;11.15;2.20;;;12.00;93.50;;;;;;5085531;28;20035;-65
2023/04/12 09:37:30;;;;;;;10.50;2.00;;;12.00;96.90;;;;;;5119923;28;20346;-63
2023/04/12 09:40:09;;;;;;;8.52;1.90;;;12.20;93.50;;;;;;5102249;28;20081;-65
2023/04/12 09:42:52;;;;;;;8.75;1.95;;;12.50;92.00;;;;;;5118953;28;20058;-63
2023/04/12 09:45:24;;;;;;;10.50;2.10;;;13.20;87.80;;;;;;5119789;28;20049;-62
2023/04/12 09:47:50;;;;;;;8.82;1.73;;;13.10;79.10;;;;;;5119086;28;20035;-65
2023/04/12 09:50:21;;;;;;;7.40;2.00;;;13.30;67.00;;;;;;5119037;28;20297;-62
2023/04/12 09:52:47;;;;;;;7.88;1.98;;;13.10;57.70;;;;;;5118961;28;20042;-60
2023/04/12 09:55:14;;;;;;;8.45;1.83;;;12.90;56.60;;;;;;5120177;28;20028;-62
2023/04/12 09:57:41;;;;;;;8.55;1.60;;;12.50;76.20;;;;;;5119587;28;20027;-61
2023/04/12 10:00:13;;;;;;;7.32;1.55;;;12.50;60.10;;;;;;5119935;28;20309;-62
2023/04/12 10:02:46;;;;;;;8.85;2.00;;;12.60;67.10;;;;;;5118804;28;20085;-61
2023/04/12 10:05:15;;;;;;;10.18;2.10;;;13.00;60.00;;;;;;5118759;28;20032;-63
2023/04/12 10:07:42;;;;;;;8.90;2.05;;;13.30;49.90;;;;;;5119508;28;20041;-66
2023/04/12 10:10:11;;;;;;;12.23;1.50;;;13.40;26.00;;;;;;5119489;28;20370;-64
2023/04/12 10:12:39;;;;;;;7.53;1.50;;;13.30;39.10;;;;;;5118860;28;20424;-68
2023/04/12 10:15:11;;;;;;;11.15;2.13;;;13.80;21.70;;;;;;5119206;28;20092;-67
2023/04/12 10:17:44;;;;;;;10.73;2.00;;;13.80;8.30;;;;;;5119046;28;20466;-61
2023/04/12 10:20:11;;;;;;;8.63;2.05;;;13.10;24.70;;;;;;5102014;28;20032;-65
2023/04/12 10:22:51;;;;;;;6.20;1.58;;;12.70;41.00;;;;;;5101333;28;20348;-72
2023/04/12 10:25:24;;;;;;;18.60;3.25;;;12.70;29.50;;;;;;5101334;28;20023;-65
2023/04/12 10:27:50;;;;;;;;;;;12.60;38.60;;;;;;5119669;28;20035;-61
2023/04/12 10:30:19;;;;;;;12.65;2.15;;;12.10;53.40;;;;;;5119042;27;19904;-62
2023/04/12 10:32:46;;;;;;;10.23;2.00;;;11.50;70.10;;;;;;5101112;28;20042;-62
2023/04/12 10:35:11;;;;;;;13.43;2.10;;;11.40;82.70;;;;;;5118882;28;20258;-62
2023/04/12 10:38:00;;;;;;;11.85;2.30;;;11.40;87.70;;;;;;5118777;28;20026;-61
2023/04/12 10:40:27;;;;;;;12.60;2.45;;;11.30;82.70;;;;;;5118737;28;20411;-61
2023/04/12 10:43:17;;;;;;;18.23;2.60;;;11.50;90.70;;;;;;5083571;28;20128;-61
2023/04/12 10:45:44;;;;;;;11.25;2.10;;;11.60;74.80;;;;;;5118755;28;20358;-61
2023/04/12 10:48:36;;;;;;;9.43;2.20;;;11.40;93.00;;;;;;5118777;28;20038;-63
2023/04/12 10:51:11;;;;;;;11.35;2.13;;;10.90;85.50;;;;;;5118627;28;20099;-70
2023/04/12 10:53:36;;;;;;;16.85;2.75;;;10.70;92.80;;;;;;5117574;28;20184;-73
2023/04/12 10:56:29;;;;;;;12.60;2.65;;;10.80;91.60;;;;;;5100937;28;20061;-63
2023/04/12 10:58:57;;;;;;;16.30;2.50;;;10.90;90.50;;;;;;5118175;28;20047;-66
2023/04/12 11:01:24;;;;;;;15.02;2.13;;;11.00;93.80;;;;;;5117613;28;20051;-59
2023/04/12 11:04:08;;;;;;;16.08;2.63;;;10.90;92.00;;;;;;5117562;28;20108;-63
2023/04/12 11:06:52;;;;;;;11.77;2.45;;;11.10;96.90;;;;;;5118257;28;20024;-60
2023/04/12 11:09:57;;;;;;;14.65;2.67;;;11.30;90.50;;;;;;5099868;28;20024;-60
2023/04/12 11:12:29;;;;;;;10.75;2.08;;;11.60;94.40;;;;;;5117958;28;20024;-62
2023/04/12 11:15:00;;;;;;;14.77;2.78;;;12.30;90.30;;;;;;5118032;28;20023;-65
2023/04/12 11:17:30;;;;;;;11.82;2.78;;;13.30;71.10;;;;;;5117404;28;20020;-61
2023/04/12 11:20:00;;;;;;;8.43;2.03;;;13.70;11.40;;;;;;5118065;28;20046;-61
2023/04/12 11:22:31;;;;;;;11.82;2.28;;;13.80;1.00;;;;;;5100341;28;20051;-60
2023/04/12 11:24:59;;;;;;;11.77;1.77;;;14.00;1.00;;;;;;5117506;28;20038;-63
2023/04/12 11:27:27;;;;;;;9.35;1.83;;;14.10;1.00;;;;;;5117855;28;20023;-63
2023/04/12 11:29:55;;;;;;;5.00;1.40;;;14.20;1.00;;;;;;5100402;28;20027;-62
2023/04/12 11:32:23;;;;;;;10.75;1.65;;;14.60;1.00;;;;;;5118235;28;20027;-65
2023/04/12 11:34:49;;;;;;;6.60;1.27;;;15.40;1.00;;;;;;5116872;28;20024;-69
2023/04/12 11:37:18;;;;;;;8.32;1.77;;;16.10;1.00;;;;;;5116965;28;20304;-64
2023/04/12 11:39:44;;;;;;;9.52;2.25;;;15.70;1.00;;;;;;5099932;28;20035;-64
2023/04/12 11:42:18;;;;;;;8.25;1.70;;;14.60;1.00;;;;;;5117134;28;20124;-70
2023/04/12 11:44:48;;;;;;;9.50;2.03;;;14.20;1.00;;;;;;5116733;28;20023;-68
2023/04/12 11:47:22;;;;;;;10.60;1.83;;;13.40;1.00;;;;;;5116899;28;20035;-64
2023/04/12 11:49:50;;;;;;;5.80;1.05;;;12.80;1.00;;;;;;5116974;28;20038;-62
2023/04/12 11:52:18;;;;;;;2.67;1.00;;;11.70;43.50;;;;;;5117531;28;20051;-61
2023/04/12 11:54:49;;;;;;;4.30;0.90;;;10.00;96.70;;;;;;5116503;28;20100;-60
2023/04/12 11:57:17;;;;;;;1.38;0.60;;;9.10;99.90;;;;;;5118336;28;20416;-60
2023/04/12 11:59:45;;;;;;;3.97;0.80;;;8.90;99.90;;;;;;5116796;28;20043;-59
2023/04/12 12:02:13;;;;;;;3.03;0.70;;;8.80;99.90;;;;;;5117357;28;20111;-60
2023/04/12 12:04:41;;;;;;;3.40;0.90;;;8.80;99.90;;;;;;5117312;28;20484;-61
2023/04/12 12:07:07;;;;;;;4.80;1.10;;;9.20;99.90;;;;;;5117209;28;20055;-62
2023/04/12 12:09:34;;;;;;;5.32;1.10;;;10.50;99.90;;;;;;5117211;28;20074;-62
2023/04/12 12:12:01;;;;;;;2.30;0.63;;;11.90;99.90;;;;;;5117389;28;20062;-61
2023/04/12 12:14:27;;;;;;;2.45;0.90;;;13.00;99.90;;;;;;5117344;28;20295;-63
2023/04/12 12:16:57;;;;;;;3.78;0.90;;;13.90;93.00;;;;;;5117177;28;20027;-62
2023/04/12 12:19:31;;;;;;;2.95;0.75;;;14.40;90.70;;;;;;5117094;28;20042;-63
2023/04/12 12:22:08;;;;;;;3.63;0.95;;;14.30;45.90;;;;;;5117189;28;20028;-64
2023/04/12 12:24:35;;;;;;;3.30;0.77;;;14.50;71.60;;;;;;5117194;28;20042;-66
2023/04/12 12:27:03;;;;;;;2.55;0.60;;;14.70;55.60;;;;;;5117123;28;20024;-66
2023/04/12 12:29:36;;;;;;;5.28;0.80;;;14.50;53.60;;;;;;5116460;28;20542;-65
2023/04/12 12:32:09;;;;;;;5.65;1.10;;;14.40;66.80;;;;;;5117060;28;20043;-66
2023/04/12 12:34:35;;;;;;;2.40;0.85;;;15.80;40.80;;;;;;5116294;28;20036;-67
2023/04/12 12:37:01;;;;;;;2.30;0.55;;;16.90;18.30;;;;;;5117031;28;20031;-70
2023/04/12 12:39:27;;;;;;;3.10;0.90;;;15.80;18.40;;;;;;5099356;28;20046;-64
2023/04/12 12:41:57;;;;;;;3.22;1.10;;;14.50;24.60;;;;;;5099697;28;20071;-67
2023/04/12 12:44:23;;;;;;;5.50;1.40;;;13.00;51.10;;;;;;5116193;28;20136;-61
2023/04/12 12:46:49;;;;;;;3.70;0.93;;;12.30;84.30;;;;;;5117008;28;20056;-65
2023/04/12 12:49:16;;;;;;;6.50;1.00;;;12.00;90.40;;;;;;5117120;28;20069;-64
2023/04/12 12:51:42;;;;;;;6.15;1.00;;;11.80;92.70;;;;;;5116582;28;20039;-65
2023/04/12 12:54:08;;;;;;;3.75;0.93;;;12.20;95.20;;;;;;5116730;28;20024;-66
2023/04/12 12:56:34;;;;;;;4.07;0.82;;;13.00;60.30;;;;;;5116909;28;20051;-66
2023/04/12 12:59:03;;;;;;;5.00;0.88;;;13.30;38.50;;;;;;5116288;28;20048;-64
2023/04/12 13:01:29;;;;;;;4.95;1.00;;;13.40;27.00;;;;;;5116202;28;20024;-63